sensor_id;sensor_type;location;lat;lon;timestamp;pressure;altitude;pressure_sealevel;temperature;humidity
41078;BME280;26823;42.662;23.352;2023-08-17T00:00:44;94917.44;;;21.05;79.48
41078;BME280;26823;42.662;23.352;2023-08-17T00:03:10;94904.97;;;20.95;80.06
41078;BME280;26823;42.662;23.352;2023-08-17T00:05:36;94911.97;;;20.93;80.43
41078;BME280;26823;42.662;23.352;2023-08-17T00:08:02;94909.31;;;20.84;81.19
41078;BME280;26823;42.662;23.352;2023-08-17T00:10:28;94908.72;;;20.78;81.51
41078;BME280;26823;42.662;23.352;2023-08-17T00:12:53;94889.56;;;20.57;82.19
41078;BME280;26823;42.662;23.352;2023-08-17T00:15:19;94894.72;;;20.59;82.46
41078;BME280;26823;42.662;23.352;2023-08-17T00:17:44;94909.88;;;20.77;81.65
41078;BME280;26823;42.662;23.352;2023-08-17T00:20:10;94901.34;;;20.58;82.53
41078;BME280;26823;42.662;23.352;2023-08-17T00:22:35;94908.22;;;20.64;82.78
41078;BME280;26823;42.662;23.352;2023-08-17T00:25:08;94907.41;;;20.63;82.18
41078;BME280;26823;42.662;23.352;2023-08-17T00:27:33;94832.22;;;20.10;81.90
41078;BME280;26823;42.662;23.352;2023-08-17T00:29:59;94915.44;;;20.68;81.08
41078;BME280;26823;42.662;23.352;2023-08-17T00:32:24;94915.00;;;20.66;80.47
41078;BME280;26823;42.662;23.352;2023-08-17T00:34:50;94912.91;;;20.63;80.34
41078;BME280;26823;42.662;23.352;2023-08-17T00:37:15;94907.97;;;20.57;80.14
41078;BME280;26823;42.662;23.352;2023-08-17T00:39:40;94903.31;;;20.57;79.34
41078;BME280;26823;42.662;23.352;2023-08-17T00:42:06;94902.97;;;20.59;78.74
41078;BME280;26823;42.662;23.352;2023-08-17T00:44:33;94899.16;;;20.63;78.98
41078;BME280;26823;42.662;23.352;2023-08-17T00:46:59;94900.03;;;20.76;78.35
41078;BME280;26823;42.662;23.352;2023-08-17T00:49:24;94900.56;;;20.69;77.61
41078;BME280;26823;42.662;23.352;2023-08-17T00:51:50;94900.47;;;20.78;77.26
41078;BME280;26823;42.662;23.352;2023-08-17T00:54:21;94876.28;;;20.59;76.92
41078;BME280;26823;42.662;23.352;2023-08-17T00:56:48;94899.69;;;20.78;76.01
41078;BME280;26823;42.662;23.352;2023-08-17T00:59:14;94903.00;;;20.83;75.02
41078;BME280;26823;42.662;23.352;2023-08-17T01:01:39;94890.25;;;20.66;74.64
41078;BME280;26823;42.662;23.352;2023-08-17T01:04:04;94872.59;;;20.55;74.10
41078;BME280;26823;42.662;23.352;2023-08-17T01:06:30;94910.44;;;20.71;73.23
41078;BME280;26823;42.662;23.352;2023-08-17T01:08:55;94905.13;;;20.65;73.21
41078;BME280;26823;42.662;23.352;2023-08-17T01:16:40;94897.59;;;20.62;72.32
41078;BME280;26823;42.662;23.352;2023-08-17T01:19:08;94897.38;;;20.67;73.69
41078;BME280;26823;42.662;23.352;2023-08-17T01:21:49;94902.56;;;20.48;73.08
41078;BME280;26823;42.662;23.352;2023-08-17T01:24:22;94898.00;;;20.40;70.58
41078;BME280;26823;42.662;23.352;2023-08-17T01:26:47;94895.16;;;20.48;71.02
41078;BME280;26823;42.662;23.352;2023-08-17T01:29:12;94881.72;;;20.34;69.70
41078;BME280;26823;42.662;23.352;2023-08-17T01:31:48;94883.66;;;20.34;69.16
41078;BME280;26823;42.662;23.352;2023-08-17T01:34:19;94894.44;;;20.39;69.25
41078;BME280;26823;42.662;23.352;2023-08-17T01:36:53;94883.31;;;20.35;69.04
41078;BME280;26823;42.662;23.352;2023-08-17T01:39:24;94894.59;;;20.55;68.81
41078;BME280;26823;42.662;23.352;2023-08-17T01:41:52;94893.66;;;20.51;68.64
41078;BME280;26823;42.662;23.352;2023-08-17T01:44:20;94895.81;;;20.45;68.04
41078;BME280;26823;42.662;23.352;2023-08-17T01:46:46;94894.22;;;20.44;68.30
41078;BME280;26823;42.662;23.352;2023-08-17T01:49:11;94879.81;;;20.47;70.08
41078;BME280;26823;42.662;23.352;2023-08-17T01:51:36;94888.28;;;20.54;67.89
41078;BME280;26823;42.662;23.352;2023-08-17T01:54:02;94895.97;;;20.61;67.38
41078;BME280;26823;42.662;23.352;2023-08-17T01:56:27;94896.41;;;20.63;66.62
41078;BME280;26823;42.662;23.352;2023-08-17T01:58:53;94883.94;;;20.53;68.34
41078;BME280;26823;42.662;23.352;2023-08-17T02:01:18;94883.34;;;20.48;67.03
41078;BME280;26823;42.662;23.352;2023-08-17T02:03:43;94884.16;;;20.61;68.01
41078;BME280;26823;42.662;23.352;2023-08-17T02:06:09;94895.38;;;20.56;66.18
41078;BME280;26823;42.662;23.352;2023-08-17T02:08:35;94889.50;;;20.32;66.98
41078;BME280;26823;42.662;23.352;2023-08-17T02:11:01;94884.03;;;20.11;67.70
41078;BME280;26823;42.662;23.352;2023-08-17T02:13:26;94885.91;;;20.19;67.87
41078;BME280;26823;42.662;23.352;2023-08-17T02:15:52;94885.91;;;20.19;68.22
41078;BME280;26823;42.662;23.352;2023-08-17T02:18:18;94880.09;;;20.21;67.88
41078;BME280;26823;42.662;23.352;2023-08-17T02:20:43;94884.69;;;20.29;69.13
41078;BME280;26823;42.662;23.352;2023-08-17T02:23:08;94875.75;;;20.32;69.28
41078;BME280;26823;42.662;23.352;2023-08-17T02:25:37;94874.97;;;20.32;68.43
41078;BME280;26823;42.662;23.352;2023-08-17T02:28:03;94888.50;;;20.37;67.95
41078;BME280;26823;42.662;23.352;2023-08-17T02:30:29;94881.34;;;20.24;67.73
41078;BME280;26823;42.662;23.352;2023-08-17T02:32:54;94889.50;;;20.32;67.34
41078;BME280;26823;42.662;23.352;2023-08-17T02:35:20;94884.13;;;20.36;67.87
41078;BME280;26823;42.662;23.352;2023-08-17T02:37:45;94886.53;;;20.37;68.58
41078;BME280;26823;42.662;23.352;2023-08-17T02:40:11;94873.81;;;20.20;68.36
41078;BME280;26823;42.662;23.352;2023-08-17T02:42:36;94875.47;;;20.13;68.37
41078;BME280;26823;42.662;23.352;2023-08-17T02:45:02;94872.84;;;20.16;68.44
41078;BME280;26823;42.662;23.352;2023-08-17T02:47:27;94875.97;;;20.27;69.83
41078;BME280;26823;42.662;23.352;2023-08-17T02:49:53;94875.16;;;20.27;69.48
41078;BME280;26823;42.662;23.352;2023-08-17T02:52:18;94864.19;;;20.27;67.89
41078;BME280;26823;42.662;23.352;2023-08-17T02:54:44;94874.16;;;20.31;69.36
41078;BME280;26823;42.662;23.352;2023-08-17T02:57:09;94873.03;;;20.32;69.31
41078;BME280;26823;42.662;23.352;2023-08-17T02:59:34;94861.25;;;20.32;69.13
41078;BME280;26823;42.662;23.352;2023-08-17T03:02:00;94866.38;;;20.33;69.03
41078;BME280;26823;42.662;23.352;2023-08-17T03:04:25;94865.34;;;20.38;69.38
41078;BME280;26823;42.662;23.352;2023-08-17T03:06:50;94883.44;;;20.39;69.49
41078;BME280;26823;42.662;23.352;2023-08-17T03:09:16;94873.22;;;20.27;69.64
41078;BME280;26823;42.662;23.352;2023-08-17T03:11:41;94875.38;;;20.21;69.26
41078;BME280;26823;42.662;23.352;2023-08-17T03:14:07;94842.41;;;20.09;69.84
41078;BME280;26823;42.662;23.352;2023-08-17T03:16:32;94876.06;;;20.18;69.42
41078;BME280;26823;42.662;23.352;2023-08-17T03:18:58;94876.53;;;20.20;70.19
41078;BME280;26823;42.662;23.352;2023-08-17T03:21:23;94871.72;;;20.17;70.00
41078;BME280;26823;42.662;23.352;2023-08-17T03:23:49;94879.94;;;20.17;69.25
41078;BME280;26823;42.662;23.352;2023-08-17T03:26:15;94869.66;;;20.14;69.75
41078;BME280;26823;42.662;23.352;2023-08-17T03:28:40;94871.59;;;20.14;69.99
41078;BME280;26823;42.662;23.352;2023-08-17T03:31:06;94883.84;;;20.16;70.39
41078;BME280;26823;42.662;23.352;2023-08-17T03:33:34;94868.91;;;20.05;70.07
41078;BME280;26823;42.662;23.352;2023-08-17T03:35:59;94870.53;;;20.06;69.37
41078;BME280;26823;42.662;23.352;2023-08-17T03:38:24;94886.22;;;20.06;69.38
41078;BME280;26823;42.662;23.352;2023-08-17T03:40:50;94883.41;;;19.93;68.21
41078;BME280;26823;42.662;23.352;2023-08-17T03:43:15;94882.28;;;19.94;68.79
41078;BME280;26823;42.662;23.352;2023-08-17T03:45:41;94883.69;;;20.00;69.24
41078;BME280;26823;42.662;23.352;2023-08-17T03:48:07;94885.47;;;19.96;68.81
41078;BME280;26823;42.662;23.352;2023-08-17T03:50:32;94889.97;;;20.01;68.89
41078;BME280;26823;42.662;23.352;2023-08-17T03:52:58;94886.22;;;20.06;68.09
41078;BME280;26823;42.662;23.352;2023-08-17T03:55:23;94887.41;;;19.96;69.06
41078;BME280;26823;42.662;23.352;2023-08-17T03:57:48;94878.66;;;19.81;66.97
41078;BME280;26823;42.662;23.352;2023-08-17T04:00:14;94888.91;;;19.93;69.05
41078;BME280;26823;42.662;23.352;2023-08-17T04:02:39;94894.38;;;19.93;69.10
41078;BME280;26823;42.662;23.352;2023-08-17T04:05:05;94881.22;;;19.86;69.67
41078;BME280;26823;42.662;23.352;2023-08-17T04:07:31;94901.75;;;19.80;67.86
41078;BME280;26823;42.662;23.352;2023-08-17T04:09:56;94884.31;;;19.85;68.70
41078;BME280;26823;42.662;23.352;2023-08-17T04:12:21;94895.59;;;19.83;68.86
41078;BME280;26823;42.662;23.352;2023-08-17T04:14:47;94892.06;;;19.83;68.42
41078;BME280;26823;42.662;23.352;2023-08-17T04:17:12;94894.16;;;19.77;67.80
41078;BME280;26823;42.662;23.352;2023-08-17T04:19:37;94890.47;;;19.52;67.72
41078;BME280;26823;42.662;23.352;2023-08-17T04:22:03;94883.94;;;19.65;69.50
41078;BME280;26823;42.662;23.352;2023-08-17T04:24:29;94894.16;;;19.77;68.75
41078;BME280;26823;42.662;23.352;2023-08-17T04:26:54;94893.31;;;19.85;69.05
41078;BME280;26823;42.662;23.352;2023-08-17T04:29:20;94898.16;;;19.80;67.94
41078;BME280;26823;42.662;23.352;2023-08-17T04:31:45;94878.19;;;19.58;67.50
41078;BME280;26823;42.662;23.352;2023-08-17T04:34:11;94891.03;;;19.66;67.50
41078;BME280;26823;42.662;23.352;2023-08-17T04:36:36;94887.19;;;19.80;67.44
41078;BME280;26823;42.662;23.352;2023-08-17T04:39:02;94885.56;;;19.87;67.48
41078;BME280;26823;42.662;23.352;2023-08-17T04:41:29;94879.31;;;19.78;66.83
41078;BME280;26823;42.662;23.352;2023-08-17T04:43:54;94870.28;;;19.78;66.75
41078;BME280;26823;42.662;23.352;2023-08-17T04:46:20;94882.94;;;19.91;64.87
41078;BME280;26823;42.662;23.352;2023-08-17T04:48:45;94886.38;;;19.88;64.99
41078;BME280;26823;42.662;23.352;2023-08-17T04:51:10;94879.97;;;19.96;67.33
41078;BME280;26823;42.662;23.352;2023-08-17T04:53:36;94885.03;;;19.94;64.22
41078;BME280;26823;42.662;23.352;2023-08-17T04:56:02;94887.81;;;20.07;64.31
41078;BME280;26823;42.662;23.352;2023-08-17T04:58:28;94876.03;;;20.06;63.59
41078;BME280;26823;42.662;23.352;2023-08-17T05:00:53;94886.03;;;20.23;65.03
41078;BME280;26823;42.662;23.352;2023-08-17T05:03:18;94877.13;;;20.26;63.94
41078;BME280;26823;42.662;23.352;2023-08-17T05:05:44;94888.50;;;20.49;62.11
41078;BME280;26823;42.662;23.352;2023-08-17T05:08:09;94883.38;;;20.60;61.51
41078;BME280;26823;42.662;23.352;2023-08-17T05:10:34;94881.88;;;20.63;60.81
41078;BME280;26823;42.662;23.352;2023-08-17T05:13:00;94863.22;;;20.68;61.90
41078;BME280;26823;42.662;23.352;2023-08-17T05:15:25;94884.56;;;21.09;62.85
41078;BME280;26823;42.662;23.352;2023-08-17T05:17:51;94896.38;;;21.22;63.10
41078;BME280;26823;42.662;23.352;2023-08-17T05:20:16;94894.19;;;21.27;62.64
41078;BME280;26823;42.662;23.352;2023-08-17T05:22:42;94884.56;;;21.21;63.51
41078;BME280;26823;42.662;23.352;2023-08-17T05:25:14;94888.69;;;21.27;64.38
41078;BME280;26823;42.662;23.352;2023-08-17T05:27:39;94889.72;;;21.23;64.45
41078;BME280;26823;42.662;23.352;2023-08-17T05:30:05;94897.31;;;21.26;64.57
41078;BME280;26823;42.662;23.352;2023-08-17T05:32:31;94883.19;;;21.27;64.53
41078;BME280;26823;42.662;23.352;2023-08-17T05:34:56;94883.78;;;21.21;64.79
41078;BME280;26823;42.662;23.352;2023-08-17T05:37:22;94888.22;;;21.38;65.45
41078;BME280;26823;42.662;23.352;2023-08-17T05:39:47;94887.06;;;21.51;64.73
41078;BME280;26823;42.662;23.352;2023-08-17T05:42:19;94896.41;;;21.75;64.27
41078;BME280;26823;42.662;23.352;2023-08-17T05:44:44;94905.13;;;21.77;64.78
41078;BME280;26823;42.662;23.352;2023-08-17T05:47:09;94889.78;;;21.76;64.70
41078;BME280;26823;42.662;23.352;2023-08-17T05:49:35;94894.09;;;21.89;63.90
41078;BME280;26823;42.662;23.352;2023-08-17T05:52:00;94900.28;;;21.86;64.11
41078;BME280;26823;42.662;23.352;2023-08-17T05:54:26;94901.63;;;22.05;64.02
41078;BME280;26823;42.662;23.352;2023-08-17T05:56:52;94905.13;;;21.89;63.38
41078;BME280;26823;42.662;23.352;2023-08-17T05:59:17;94910.09;;;22.12;64.06
41078;BME280;26823;42.662;23.352;2023-08-17T06:01:42;94905.22;;;22.21;63.41
41078;BME280;26823;42.662;23.352;2023-08-17T06:04:08;94898.56;;;22.22;61.88
41078;BME280;26823;42.662;23.352;2023-08-17T06:06:33;94909.63;;;22.38;61.52
41078;BME280;26823;42.662;23.352;2023-08-17T06:08:59;94913.22;;;22.39;60.86
41078;BME280;26823;42.662;23.352;2023-08-17T06:11:24;94879.91;;;22.15;60.96
41078;BME280;26823;42.662;23.352;2023-08-17T06:13:50;94907.44;;;22.44;60.16
41078;BME280;26823;42.662;23.352;2023-08-17T06:16:15;94903.38;;;22.54;60.80
41078;BME280;26823;42.662;23.352;2023-08-17T06:18:41;94892.50;;;22.61;60.35
41078;BME280;26823;42.662;23.352;2023-08-17T06:21:07;94901.09;;;22.88;59.49
41078;BME280;26823;42.662;23.352;2023-08-17T06:23:32;94900.38;;;22.91;58.92
41078;BME280;26823;42.662;23.352;2023-08-17T06:25:58;94897.94;;;23.05;58.56
41078;BME280;26823;42.662;23.352;2023-08-17T06:28:24;94903.94;;;23.23;59.21
41078;BME280;26823;42.662;23.352;2023-08-17T06:30:56;94908.47;;;23.32;58.30
41078;BME280;26823;42.662;23.352;2023-08-17T06:33:22;94900.09;;;23.44;58.46
41078;BME280;26823;42.662;23.352;2023-08-17T06:35:48;94908.00;;;23.45;57.49
41078;BME280;26823;42.662;23.352;2023-08-17T06:38:14;94908.69;;;23.58;57.58
41078;BME280;26823;42.662;23.352;2023-08-17T06:40:39;94910.00;;;23.65;57.31
41078;BME280;26823;42.662;23.352;2023-08-17T06:43:04;94910.94;;;23.72;57.52
41078;BME280;26823;42.662;23.352;2023-08-17T06:45:33;94911.88;;;23.60;59.31
41078;BME280;26823;42.662;23.352;2023-08-17T06:47:59;94902.94;;;23.67;59.70
41078;BME280;26823;42.662;23.352;2023-08-17T06:50:24;94900.81;;;23.76;59.70
41078;BME280;26823;42.662;23.352;2023-08-17T06:52:51;94902.25;;;23.90;59.67
41078;BME280;26823;42.662;23.352;2023-08-17T06:55:17;94915.53;;;24.20;59.38
41078;BME280;26823;42.662;23.352;2023-08-17T06:57:42;94903.97;;;24.14;59.37
41078;BME280;26823;42.662;23.352;2023-08-17T07:00:08;94907.97;;;24.36;59.23
41078;BME280;26823;42.662;23.352;2023-08-17T07:02:34;94916.50;;;24.51;56.01
41078;BME280;26823;42.662;23.352;2023-08-17T07:05:00;94914.88;;;24.46;53.99
41078;BME280;26823;42.662;23.352;2023-08-17T07:07:25;94914.44;;;24.44;53.05
41078;BME280;26823;42.662;23.352;2023-08-17T07:09:50;94891.63;;;24.51;54.14
41078;BME280;26823;42.662;23.352;2023-08-17T07:12:16;94911.47;;;24.76;52.31
41078;BME280;26823;42.662;23.352;2023-08-17T07:14:41;94899.63;;;24.75;50.99
41078;BME280;26823;42.662;23.352;2023-08-17T07:17:07;94919.84;;;25.03;51.61
41078;BME280;26823;42.662;23.352;2023-08-17T07:19:32;94916.66;;;25.01;50.98
41078;BME280;26823;42.662;23.352;2023-08-17T07:21:57;94911.78;;;25.17;49.45
41078;BME280;26823;42.662;23.352;2023-08-17T07:24:23;94918.56;;;25.20;47.66
41078;BME280;26823;42.662;23.352;2023-08-17T07:26:48;94917.34;;;25.17;48.44
41078;BME280;26823;42.662;23.352;2023-08-17T07:29:13;94899.88;;;25.13;49.97
41078;BME280;26823;42.662;23.352;2023-08-17T07:31:39;94901.81;;;25.13;48.83
41078;BME280;26823;42.662;23.352;2023-08-17T07:34:05;94906.84;;;25.30;50.40
41078;BME280;26823;42.662;23.352;2023-08-17T07:36:31;94906.06;;;25.30;48.52
41078;BME280;26823;42.662;23.352;2023-08-17T07:38:57;94907.03;;;25.18;48.68
41078;BME280;26823;42.662;23.352;2023-08-17T07:41:22;94907.00;;;25.37;50.94
41078;BME280;26823;42.662;23.352;2023-08-17T07:43:48;94905.28;;;25.56;48.21
41078;BME280;26823;42.662;23.352;2023-08-17T07:46:13;94905.50;;;25.70;47.87
41078;BME280;26823;42.662;23.352;2023-08-17T07:48:38;94900.25;;;25.62;44.58
41078;BME280;26823;42.662;23.352;2023-08-17T07:51:04;94902.09;;;25.81;45.68
41078;BME280;26823;42.662;23.352;2023-08-17T07:53:29;94909.41;;;25.96;43.54
41078;BME280;26823;42.662;23.352;2023-08-17T07:55:55;94904.97;;;25.88;43.22
41078;BME280;26823;42.662;23.352;2023-08-17T07:58:20;94905.03;;;25.95;42.40
41078;BME280;26823;42.662;23.352;2023-08-17T08:00:45;94898.59;;;25.87;42.89
41078;BME280;26823;42.662;23.352;2023-08-17T08:03:11;94899.50;;;25.95;43.87
41078;BME280;26823;42.662;23.352;2023-08-17T08:05:36;94895.00;;;26.14;44.42
41078;BME280;26823;42.662;23.352;2023-08-17T08:08:02;94894.69;;;26.19;43.91
41078;BME280;26823;42.662;23.352;2023-08-17T08:10:27;94884.38;;;26.19;43.42
41078;BME280;26823;42.662;23.352;2023-08-17T08:12:53;94896.44;;;26.34;42.39
41078;BME280;26823;42.662;23.352;2023-08-17T08:15:19;94884.25;;;26.43;42.98
41078;BME280;26823;42.662;23.352;2023-08-17T08:17:44;94882.09;;;26.63;43.67
41078;BME280;26823;42.662;23.352;2023-08-17T08:20:10;94892.84;;;26.68;43.07
41078;BME280;26823;42.662;23.352;2023-08-17T08:22:36;94880.19;;;26.70;42.29
41078;BME280;26823;42.662;23.352;2023-08-17T08:25:01;94893.78;;;26.79;42.31
41078;BME280;26823;42.662;23.352;2023-08-17T08:27:27;94887.66;;;27.04;42.08
41078;BME280;26823;42.662;23.352;2023-08-17T08:29:52;94876.06;;;26.95;42.30
41078;BME280;26823;42.662;23.352;2023-08-17T08:32:17;94881.34;;;27.07;43.52
41078;BME280;26823;42.662;23.352;2023-08-17T08:34:43;94876.72;;;26.77;42.98
41078;BME280;26823;42.662;23.352;2023-08-17T08:37:08;94875.63;;;26.89;43.93
41078;BME280;26823;42.662;23.352;2023-08-17T08:39:48;94877.78;;;27.10;43.46
41078;BME280;26823;42.662;23.352;2023-08-17T08:42:15;94871.47;;;27.13;43.25
41078;BME280;26823;42.662;23.352;2023-08-17T08:44:40;94869.56;;;27.25;44.33
41078;BME280;26823;42.662;23.352;2023-08-17T08:47:06;94882.34;;;27.37;43.14
41078;BME280;26823;42.662;23.352;2023-08-17T08:49:33;94860.88;;;27.26;44.04
41078;BME280;26823;42.662;23.352;2023-08-17T08:52:01;94877.97;;;27.35;42.05
41078;BME280;26823;42.662;23.352;2023-08-17T08:54:30;94853.03;;;27.39;41.88
41078;BME280;26823;42.662;23.352;2023-08-17T08:57:01;94877.59;;;27.37;42.09
41078;BME280;26823;42.662;23.352;2023-08-17T08:59:28;94861.41;;;27.43;42.75
41078;BME280;26823;42.662;23.352;2023-08-17T09:01:55;94863.44;;;27.53;41.78
41078;BME280;26823;42.662;23.352;2023-08-17T09:04:23;94855.97;;;27.61;41.39
41078;BME280;26823;42.662;23.352;2023-08-17T09:06:50;94857.16;;;27.63;41.59
41078;BME280;26823;42.662;23.352;2023-08-17T09:09:16;94863.09;;;27.58;42.23
41078;BME280;26823;42.662;23.352;2023-08-17T09:11:43;94847.03;;;27.37;41.82
41078;BME280;26823;42.662;23.352;2023-08-17T09:14:08;94840.44;;;27.56;42.55
41078;BME280;26823;42.662;23.352;2023-08-17T09:16:34;94850.84;;;27.70;41.68
41078;BME280;26823;42.662;23.352;2023-08-17T09:18:59;94844.56;;;27.84;41.08
41078;BME280;26823;42.662;23.352;2023-08-17T09:21:25;94846.84;;;27.64;41.29
41078;BME280;26823;42.662;23.352;2023-08-17T09:23:51;94858.09;;;27.86;41.19
41078;BME280;26823;42.662;23.352;2023-08-17T09:26:19;94831.94;;;28.01;40.80
41078;BME280;26823;42.662;23.352;2023-08-17T09:28:44;94835.19;;;28.10;41.17
41078;BME280;26823;42.662;23.352;2023-08-17T09:31:11;94837.91;;;28.03;40.58
41078;BME280;26823;42.662;23.352;2023-08-17T09:33:37;94836.81;;;28.19;40.94
41078;BME280;26823;42.662;23.352;2023-08-17T09:36:02;94824.50;;;28.30;39.90
41078;BME280;26823;42.662;23.352;2023-08-17T09:38:28;94823.34;;;28.46;39.90
41078;BME280;26823;42.662;23.352;2023-08-17T09:40:53;94812.66;;;28.52;38.00
41078;BME280;26823;42.662;23.352;2023-08-17T09:43:19;94816.22;;;28.52;37.56
41078;BME280;26823;42.662;23.352;2023-08-17T09:45:48;94800.72;;;28.44;36.16
41078;BME280;26823;42.662;23.352;2023-08-17T09:48:18;94811.47;;;28.63;36.66
41078;BME280;26823;42.662;23.352;2023-08-17T09:50:45;94814.25;;;28.63;35.63
41078;BME280;26823;42.662;23.352;2023-08-17T09:53:15;94804.69;;;28.50;35.64
41078;BME280;26823;42.662;23.352;2023-08-17T09:55:42;94810.69;;;28.67;35.70
41078;BME280;26823;42.662;23.352;2023-08-17T09:58:08;94790.81;;;28.75;35.96
41078;BME280;26823;42.662;23.352;2023-08-17T10:00:34;94803.53;;;28.73;35.85
41078;BME280;26823;42.662;23.352;2023-08-17T10:03:03;94802.75;;;28.87;36.70
41078;BME280;26823;42.662;23.352;2023-08-17T10:05:31;94804.72;;;28.97;35.35
41078;BME280;26823;42.662;23.352;2023-08-17T10:08:00;94805.13;;;29.21;35.36
41078;BME280;26823;42.662;23.352;2023-08-17T10:10:29;94798.34;;;29.11;35.30
41078;BME280;26823;42.662;23.352;2023-08-17T10:21:10;94786.03;;;29.08;33.76
41078;BME280;26823;42.662;23.352;2023-08-17T10:23:38;94776.91;;;29.08;34.04
41078;BME280;26823;42.662;23.352;2023-08-17T10:26:04;94797.16;;;29.12;33.49
41078;BME280;26823;42.662;23.352;2023-08-17T10:28:31;94793.19;;;29.27;33.87
41078;BME280;26823;42.662;23.352;2023-08-17T10:30:57;94772.50;;;29.36;34.11
41078;BME280;26823;42.662;23.352;2023-08-17T10:33:24;94773.28;;;29.43;34.79
41078;BME280;26823;42.662;23.352;2023-08-17T10:35:51;94766.09;;;29.46;34.02
41078;BME280;26823;42.662;23.352;2023-08-17T10:38:17;94786.00;;;29.44;33.00
41078;BME280;26823;42.662;23.352;2023-08-17T10:40:43;94784.81;;;29.45;33.57
41078;BME280;26823;42.662;23.352;2023-08-17T10:43:09;94789.16;;;29.61;32.87
41078;BME280;26823;42.662;23.352;2023-08-17T10:45:35;94751.84;;;29.29;33.37
41078;BME280;26823;42.662;23.352;2023-08-17T10:50:36;94779.28;;;29.24;34.51
41078;BME280;26823;42.662;23.352;2023-08-17T10:53:11;94765.34;;;29.31;33.69
41078;BME280;26823;42.662;23.352;2023-08-17T10:55:40;94778.41;;;29.56;33.30
41078;BME280;26823;42.662;23.352;2023-08-17T10:58:07;94766.84;;;29.72;33.78
41078;BME280;26823;42.662;23.352;2023-08-17T11:00:39;94766.38;;;29.91;33.88
41078;BME280;26823;42.662;23.352;2023-08-17T11:03:09;94758.41;;;29.93;32.55
41078;BME280;26823;42.662;23.352;2023-08-17T11:05:48;94764.38;;;29.92;32.88
41078;BME280;26823;42.662;23.352;2023-08-17T11:13:27;94745.25;;;29.87;34.72
41078;BME280;26823;42.662;23.352;2023-08-17T11:15:53;94754.75;;;30.04;34.81
41078;BME280;26823;42.662;23.352;2023-08-17T11:18:18;94731.38;;;29.76;34.27
41078;BME280;26823;42.662;23.352;2023-08-17T11:20:44;94752.78;;;30.01;34.72
41078;BME280;26823;42.662;23.352;2023-08-17T11:23:09;94749.59;;;30.02;34.60
41078;BME280;26823;42.662;23.352;2023-08-17T11:25:37;94752.41;;;30.02;34.34
41078;BME280;26823;42.662;23.352;2023-08-17T11:28:03;94751.22;;;30.00;34.46
41078;BME280;26823;42.662;23.352;2023-08-17T11:30:29;94747.59;;;30.06;34.35
41078;BME280;26823;42.662;23.352;2023-08-17T11:32:55;94744.06;;;29.95;34.90
41078;BME280;26823;42.662;23.352;2023-08-17T11:35:21;94747.72;;;29.67;34.97
41078;BME280;26823;42.662;23.352;2023-08-17T11:37:48;94745.25;;;29.87;34.60
41078;BME280;26823;42.662;23.352;2023-08-17T11:40:15;94715.81;;;29.86;34.70
41078;BME280;26823;42.662;23.352;2023-08-17T11:42:41;94741.16;;;30.13;34.00
41078;BME280;26823;42.662;23.352;2023-08-17T11:45:07;94751.56;;;30.05;34.95
41078;BME280;26823;42.662;23.352;2023-08-17T11:47:37;94727.75;;;29.90;34.45
41078;BME280;26823;42.662;23.352;2023-08-17T11:50:04;94713.94;;;29.61;35.19
41078;BME280;26823;42.662;23.352;2023-08-17T11:52:30;94703.22;;;29.49;35.90
41078;BME280;26823;42.662;23.352;2023-08-17T11:54:58;94702.75;;;29.72;36.11
41078;BME280;26823;42.662;23.352;2023-08-17T11:57:23;94742.41;;;30.05;35.41
41078;BME280;26823;42.662;23.352;2023-08-17T11:59:53;94715.72;;;30.07;35.87
41078;BME280;26823;42.662;23.352;2023-08-17T12:02:19;94724.88;;;30.08;35.05
41078;BME280;26823;42.662;23.352;2023-08-17T12:04:45;94734.81;;;30.09;35.47
41078;BME280;26823;42.662;23.352;2023-08-17T12:07:11;94735.31;;;29.86;35.44
41078;BME280;26823;42.662;23.352;2023-08-17T12:09:36;94721.38;;;29.89;35.62
41078;BME280;26823;42.662;23.352;2023-08-17T12:12:01;94734.00;;;30.08;35.50
41078;BME280;26823;42.662;23.352;2023-08-17T12:14:27;94720.78;;;30.20;34.96
41078;BME280;26823;42.662;23.352;2023-08-17T12:16:57;94724.72;;;30.30;33.91
41078;BME280;26823;42.662;23.352;2023-08-17T12:19:26;94718.13;;;30.02;34.48
41078;BME280;26823;42.662;23.352;2023-08-17T12:21:51;94718.56;;;29.97;34.56
41078;BME280;26823;42.662;23.352;2023-08-17T12:24:17;94709.56;;;29.56;35.48
41078;BME280;26823;42.662;23.352;2023-08-17T12:26:45;94723.78;;;29.80;35.65
41078;BME280;26823;42.662;23.352;2023-08-17T12:29:14;94715.97;;;29.50;35.97
41078;BME280;26823;42.662;23.352;2023-08-17T12:31:40;94717.91;;;29.56;36.24
41078;BME280;26823;42.662;23.352;2023-08-17T12:34:05;94720.66;;;29.67;36.62
41078;BME280;26823;42.662;23.352;2023-08-17T12:36:31;94714.69;;;29.65;36.34
41078;BME280;26823;42.662;23.352;2023-08-17T12:38:57;94723.38;;;29.82;36.31
41078;BME280;26823;42.662;23.352;2023-08-17T12:41:22;94709.50;;;29.74;36.76
41078;BME280;26823;42.662;23.352;2023-08-17T12:43:48;94719.06;;;29.73;36.43
41078;BME280;26823;42.662;23.352;2023-08-17T12:46:13;94694.09;;;29.48;36.44
41078;BME280;26823;42.662;23.352;2023-08-17T12:48:38;94702.44;;;29.52;37.30
41078;BME280;26823;42.662;23.352;2023-08-17T12:51:04;94716.38;;;29.52;37.31
41078;BME280;26823;42.662;23.352;2023-08-17T12:53:30;94714.38;;;29.49;37.46
41078;BME280;26823;42.662;23.352;2023-08-17T12:55:55;94713.56;;;29.55;37.12
41078;BME280;26823;42.662;23.352;2023-08-17T12:58:20;94719.09;;;29.59;37.60
41078;BME280;26823;42.662;23.352;2023-08-17T13:00:46;94710.78;;;29.55;38.88
41078;BME280;26823;42.662;23.352;2023-08-17T13:03:11;94705.59;;;29.54;38.84
41078;BME280;26823;42.662;23.352;2023-08-17T13:05:37;94712.00;;;29.40;40.62